sensor_id;sensor_type;location;lat;lon;timestamp;P1;durP1;ratioP1;P2;durP2;ratioP2
16662;SDS011;8445;51.270;9.434;2023-07-29T00:00:13;23.17;;;20.30;;
16662;SDS011;8445;51.270;9.434;2023-07-29T00:02:39;23.83;;;19.95;;
16662;SDS011;8445;51.270;9.434;2023-07-29T00:05:05;21.25;;;19.13;;
16662;SDS011;8445;51.270;9.434;2023-07-29T00:07:30;27.08;;;20.42;;
16662;SDS011;8445;51.270;9.434;2023-07-29T00:09:56;29.10;;;19.17;;
16662;SDS011;8445;51.270;9.434;2023-07-29T00:12:21;25.23;;;20.15;;
16662;SDS011;8445;51.270;9.434;2023-07-29T00:14:46;21.55;;;19.17;;
16662;SDS011;8445;51.270;9.434;2023-07-29T00:17:12;27.55;;;20.60;;
16662;SDS011;8445;51.270;9.434;2023-07-29T00:19:37;27.45;;;20.08;;
16662;SDS011;8445;51.270;9.434;2023-07-29T00:22:02;31.75;;;19.20;;
16662;SDS011;8445;51.270;9.434;2023-07-29T00:24:28;22.70;;;18.90;;
16662;SDS011;8445;51.270;9.434;2023-07-29T00:26:53;31.27;;;20.52;;
16662;SDS011;8445;51.270;9.434;2023-07-29T00:29:20;24.00;;;18.65;;
16662;SDS011;8445;51.270;9.434;2023-07-29T00:31:45;23.17;;;18.30;;
16662;SDS011;8445;51.270;9.434;2023-07-29T00:34:10;26.92;;;18.85;;
16662;SDS011;8445;51.270;9.434;2023-07-29T00:36:36;21.40;;;19.08;;
16662;SDS011;8445;51.270;9.434;2023-07-29T00:39:01;20.77;;;18.48;;
16662;SDS011;8445;51.270;9.434;2023-07-29T00:41:26;19.67;;;17.63;;
16662;SDS011;8445;51.270;9.434;2023-07-29T00:43:52;26.65;;;18.67;;
16662;SDS011;8445;51.270;9.434;2023-07-29T00:46:17;20.52;;;17.60;;
16662;SDS011;8445;51.270;9.434;2023-07-29T00:48:43;21.70;;;17.80;;
16662;SDS011;8445;51.270;9.434;2023-07-29T00:51:09;19.60;;;17.45;;
16662;SDS011;8445;51.270;9.434;2023-07-29T00:53:34;21.50;;;16.42;;
16662;SDS011;8445;51.270;9.434;2023-07-29T00:55:59;20.27;;;17.30;;
16662;SDS011;8445;51.270;9.434;2023-07-29T00:58:25;18.58;;;16.70;;
16662;SDS011;8445;51.270;9.434;2023-07-29T01:00:50;17.33;;;15.73;;
16662;SDS011;8445;51.270;9.434;2023-07-29T01:03:16;18.35;;;16.05;;
16662;SDS011;8445;51.270;9.434;2023-07-29T01:05:56;22.90;;;16.00;;
16662;SDS011;8445;51.270;9.434;2023-07-29T01:08:27;20.48;;;14.95;;
16662;SDS011;8445;51.270;9.434;2023-07-29T01:11:19;18.73;;;16.90;;
16662;SDS011;8445;51.270;9.434;2023-07-29T01:13:50;17.42;;;15.75;;
16662;SDS011;8445;51.270;9.434;2023-07-29T01:16:21;18.58;;;16.75;;
16662;SDS011;8445;51.270;9.434;2023-07-29T01:18:49;16.75;;;15.00;;
16662;SDS011;8445;51.270;9.434;2023-07-29T01:21:17;16.80;;;14.45;;
16662;SDS011;8445;51.270;9.434;2023-07-29T01:23:43;20.25;;;15.02;;
16662;SDS011;8445;51.270;9.434;2023-07-29T01:26:09;23.05;;;14.80;;
16662;SDS011;8445;51.270;9.434;2023-07-29T01:28:34;18.77;;;16.83;;
16662;SDS011;8445;51.270;9.434;2023-07-29T01:33:37;18.58;;;14.70;;
16662;SDS011;8445;51.270;9.434;2023-07-29T01:36:07;16.00;;;14.13;;
16662;SDS011;8445;51.270;9.434;2023-07-29T01:38:37;14.98;;;13.68;;
16662;SDS011;8445;51.270;9.434;2023-07-29T01:41:04;18.90;;;14.50;;
16662;SDS011;8445;51.270;9.434;2023-07-29T01:43:31;18.50;;;14.32;;
16662;SDS011;8445;51.270;9.434;2023-07-29T01:45:57;15.70;;;14.23;;
16662;SDS011;8445;51.270;9.434;2023-07-29T01:48:22;20.00;;;13.95;;
16662;SDS011;8445;51.270;9.434;2023-07-29T01:50:49;15.07;;;13.63;;
16662;SDS011;8445;51.270;9.434;2023-07-29T01:53:14;17.63;;;15.35;;
16662;SDS011;8445;51.270;9.434;2023-07-29T01:55:40;17.13;;;15.43;;
16662;SDS011;8445;51.270;9.434;2023-07-29T01:58:05;16.10;;;14.23;;
16662;SDS011;8445;51.270;9.434;2023-07-29T02:00:34;16.27;;;14.70;;
16662;SDS011;8445;51.270;9.434;2023-07-29T02:02:59;21.00;;;15.73;;
16662;SDS011;8445;51.270;9.434;2023-07-29T02:05:24;17.42;;;15.20;;
16662;SDS011;8445;51.270;9.434;2023-07-29T02:07:50;21.20;;;19.08;;
16662;SDS011;8445;51.270;9.434;2023-07-29T02:10:15;17.77;;;15.77;;
16662;SDS011;8445;51.270;9.434;2023-07-29T02:12:44;16.58;;;14.98;;
16662;SDS011;8445;51.270;9.434;2023-07-29T02:15:09;18.15;;;16.50;;
16662;SDS011;8445;51.270;9.434;2023-07-29T02:17:35;16.65;;;15.35;;
16662;SDS011;8445;51.270;9.434;2023-07-29T02:20:02;26.10;;;16.38;;
16662;SDS011;8445;51.270;9.434;2023-07-29T02:22:28;15.63;;;14.27;;
16662;SDS011;8445;51.270;9.434;2023-07-29T02:24:54;17.70;;;15.98;;
16662;SDS011;8445;51.270;9.434;2023-07-29T02:27:19;16.70;;;15.43;;
16662;SDS011;8445;51.270;9.434;2023-07-29T02:29:45;16.75;;;14.77;;
16662;SDS011;8445;51.270;9.434;2023-07-29T02:32:10;16.70;;;15.23;;
16662;SDS011;8445;51.270;9.434;2023-07-29T02:34:35;17.25;;;15.50;;
16662;SDS011;8445;51.270;9.434;2023-07-29T02:37:01;17.30;;;16.00;;
16662;SDS011;8445;51.270;9.434;2023-07-29T02:39:26;17.63;;;16.08;;
16662;SDS011;8445;51.270;9.434;2023-07-29T02:41:52;19.58;;;17.02;;
16662;SDS011;8445;51.270;9.434;2023-07-29T02:44:17;17.45;;;15.98;;
16662;SDS011;8445;51.270;9.434;2023-07-29T02:46:43;16.92;;;15.73;;
16662;SDS011;8445;51.270;9.434;2023-07-29T02:49:08;18.10;;;16.63;;
16662;SDS011;8445;51.270;9.434;2023-07-29T02:51:33;18.63;;;16.85;;
16662;SDS011;8445;51.270;9.434;2023-07-29T02:54:00;20.77;;;16.00;;
16662;SDS011;8445;51.270;9.434;2023-07-29T02:56:26;17.92;;;15.52;;
16662;SDS011;8445;51.270;9.434;2023-07-29T02:58:51;17.17;;;15.88;;
16662;SDS011;8445;51.270;9.434;2023-07-29T03:01:17;17.65;;;15.88;;
16662;SDS011;8445;51.270;9.434;2023-07-29T03:03:42;16.80;;;15.15;;
16662;SDS011;8445;51.270;9.434;2023-07-29T03:06:09;17.67;;;16.02;;
16662;SDS011;8445;51.270;9.434;2023-07-29T03:08:35;16.42;;;14.93;;
16662;SDS011;8445;51.270;9.434;2023-07-29T03:11:34;17.40;;;15.68;;
16662;SDS011;8445;51.270;9.434;2023-07-29T03:13:52;16.35;;;14.93;;
16662;SDS011;8445;51.270;9.434;2023-07-29T03:16:18;17.33;;;15.73;;
16662;SDS011;8445;51.270;9.434;2023-07-29T03:18:52;17.13;;;15.85;;
16662;SDS011;8445;51.270;9.434;2023-07-29T03:21:17;16.77;;;15.13;;
16662;SDS011;8445;51.270;9.434;2023-07-29T03:23:42;16.02;;;14.75;;
16662;SDS011;8445;51.270;9.434;2023-07-29T03:26:08;16.50;;;14.90;;
16662;SDS011;8445;51.270;9.434;2023-07-29T03:28:40;16.42;;;14.75;;
16662;SDS011;8445;51.270;9.434;2023-07-29T03:31:06;16.42;;;15.07;;
16662;SDS011;8445;51.270;9.434;2023-07-29T03:33:32;18.05;;;16.23;;
16662;SDS011;8445;51.270;9.434;2023-07-29T03:35:57;17.05;;;15.55;;
16662;SDS011;8445;51.270;9.434;2023-07-29T03:38:23;16.33;;;15.00;;
16662;SDS011;8445;51.270;9.434;2023-07-29T03:40:48;17.50;;;15.75;;
16662;SDS011;8445;51.270;9.434;2023-07-29T03:43:14;18.58;;;16.67;;
16662;SDS011;8445;51.270;9.434;2023-07-29T03:45:39;17.95;;;16.48;;
16662;SDS011;8445;51.270;9.434;2023-07-29T03:48:05;17.63;;;15.77;;
16662;SDS011;8445;51.270;9.434;2023-07-29T03:50:32;17.92;;;15.07;;
16662;SDS011;8445;51.270;9.434;2023-07-29T03:52:58;17.98;;;16.30;;
16662;SDS011;8445;51.270;9.434;2023-07-29T03:55:23;18.17;;;16.35;;
16662;SDS011;8445;51.270;9.434;2023-07-29T03:57:48;18.10;;;16.80;;
16662;SDS011;8445;51.270;9.434;2023-07-29T04:00:14;19.05;;;17.00;;
16662;SDS011;8445;51.270;9.434;2023-07-29T04:02:42;19.80;;;16.70;;
16662;SDS011;8445;51.270;9.434;2023-07-29T04:05:09;21.10;;;17.48;;
16662;SDS011;8445;51.270;9.434;2023-07-29T04:09:54;16.23;;;14.57;;
16662;SDS011;8445;51.270;9.434;2023-07-29T04:12:20;14.23;;;13.02;;
16662;SDS011;8445;51.270;9.434;2023-07-29T04:14:46;15.30;;;13.75;;
16662;SDS011;8445;51.270;9.434;2023-07-29T04:17:12;15.27;;;13.85;;
16662;SDS011;8445;51.270;9.434;2023-07-29T04:19:38;15.30;;;13.63;;
16662;SDS011;8445;51.270;9.434;2023-07-29T04:22:04;15.65;;;13.98;;
16662;SDS011;8445;51.270;9.434;2023-07-29T04:24:30;15.85;;;14.48;;
16662;SDS011;8445;51.270;9.434;2023-07-29T04:26:56;15.30;;;13.80;;
16662;SDS011;8445;51.270;9.434;2023-07-29T04:29:22;15.95;;;14.05;;
16662;SDS011;8445;51.270;9.434;2023-07-29T04:31:48;15.85;;;14.30;;
16662;SDS011;8445;51.270;9.434;2023-07-29T04:34:15;15.80;;;14.05;;
16662;SDS011;8445;51.270;9.434;2023-07-29T04:36:41;16.08;;;14.55;;
16662;SDS011;8445;51.270;9.434;2023-07-29T04:39:07;15.27;;;14.02;;
16662;SDS011;8445;51.270;9.434;2023-07-29T04:41:33;15.27;;;14.00;;
16662;SDS011;8445;51.270;9.434;2023-07-29T04:43:58;14.82;;;13.73;;
16662;SDS011;8445;51.270;9.434;2023-07-29T04:46:24;14.43;;;13.52;;
16662;SDS011;8445;51.270;9.434;2023-07-29T04:48:50;14.65;;;13.45;;
16662;SDS011;8445;51.270;9.434;2023-07-29T04:51:16;15.75;;;13.35;;
16662;SDS011;8445;51.270;9.434;2023-07-29T04:53:41;14.05;;;13.02;;
16662;SDS011;8445;51.270;9.434;2023-07-29T04:56:07;14.68;;;13.50;;
16662;SDS011;8445;51.270;9.434;2023-07-29T04:58:33;14.65;;;13.45;;
16662;SDS011;8445;51.270;9.434;2023-07-29T05:01:03;14.40;;;13.02;;
16662;SDS011;8445;51.270;9.434;2023-07-29T05:03:29;14.38;;;13.30;;
16662;SDS011;8445;51.270;9.434;2023-07-29T05:05:56;25.77;;;21.30;;
16662;SDS011;8445;51.270;9.434;2023-07-29T05:11:07;10.55;;;9.85;;
16662;SDS011;8445;51.270;9.434;2023-07-29T05:13:33;11.77;;;10.70;;
16662;SDS011;8445;51.270;9.434;2023-07-29T05:15:59;11.32;;;10.18;;
16662;SDS011;8445;51.270;9.434;2023-07-29T05:18:25;13.85;;;10.93;;
16662;SDS011;8445;51.270;9.434;2023-07-29T05:20:51;11.55;;;10.75;;
16662;SDS011;8445;51.270;9.434;2023-07-29T05:23:17;11.30;;;10.32;;
16662;SDS011;8445;51.270;9.434;2023-07-29T05:25:43;11.68;;;10.60;;
16662;SDS011;8445;51.270;9.434;2023-07-29T05:28:09;11.77;;;10.68;;
16662;SDS011;8445;51.270;9.434;2023-07-29T05:30:34;14.32;;;10.95;;
16662;SDS011;8445;51.270;9.434;2023-07-29T05:33:05;12.13;;;11.15;;
16662;SDS011;8445;51.270;9.434;2023-07-29T05:35:33;12.00;;;11.10;;
16662;SDS011;8445;51.270;9.434;2023-07-29T05:37:59;12.13;;;11.05;;
16662;SDS011;8445;51.270;9.434;2023-07-29T05:40:25;10.88;;;10.18;;
16662;SDS011;8445;51.270;9.434;2023-07-29T05:42:51;11.98;;;11.27;;
16662;SDS011;8445;51.270;9.434;2023-07-29T05:45:17;11.18;;;10.45;;
16662;SDS011;8445;51.270;9.434;2023-07-29T05:47:43;10.70;;;10.00;;
16662;SDS011;8445;51.270;9.434;2023-07-29T05:50:09;11.60;;;10.90;;
16662;SDS011;8445;51.270;9.434;2023-07-29T05:52:35;11.38;;;10.40;;
16662;SDS011;8445;51.270;9.434;2023-07-29T05:55:02;11.02;;;9.90;;
16662;SDS011;8445;51.270;9.434;2023-07-29T05:57:29;10.25;;;9.55;;
16662;SDS011;8445;51.270;9.434;2023-07-29T05:59:55;10.10;;;9.48;;
16662;SDS011;8445;51.270;9.434;2023-07-29T06:02:21;10.73;;;9.77;;
16662;SDS011;8445;51.270;9.434;2023-07-29T06:04:47;10.77;;;9.77;;
16662;SDS011;8445;51.270;9.434;2023-07-29T06:07:13;9.95;;;9.35;;
16662;SDS011;8445;51.270;9.434;2023-07-29T06:09:39;10.25;;;9.55;;
16662;SDS011;8445;51.270;9.434;2023-07-29T06:12:05;10.50;;;9.80;;
16662;SDS011;8445;51.270;9.434;2023-07-29T06:14:32;10.20;;;9.43;;
16662;SDS011;8445;51.270;9.434;2023-07-29T06:16:58;11.02;;;10.02;;
16662;SDS011;8445;51.270;9.434;2023-07-29T06:19:24;10.13;;;9.48;;
16662;SDS011;8445;51.270;9.434;2023-07-29T06:21:54;9.90;;;9.25;;
16662;SDS011;8445;51.270;9.434;2023-07-29T06:24:21;10.00;;;9.25;;
16662;SDS011;8445;51.270;9.434;2023-07-29T06:26:47;9.98;;;9.13;;
16662;SDS011;8445;51.270;9.434;2023-07-29T06:29:13;8.93;;;8.23;;
16662;SDS011;8445;51.270;9.434;2023-07-29T06:31:39;8.85;;;8.23;;
16662;SDS011;8445;51.270;9.434;2023-07-29T06:34:04;8.52;;;8.02;;
16662;SDS011;8445;51.270;9.434;2023-07-29T06:36:30;10.77;;;8.75;;
16662;SDS011;8445;51.270;9.434;2023-07-29T06:38:56;8.40;;;8.00;;
16662;SDS011;8445;51.270;9.434;2023-07-29T06:41:22;9.05;;;8.45;;
16662;SDS011;8445;51.270;9.434;2023-07-29T06:43:51;9.00;;;8.30;;
16662;SDS011;8445;51.270;9.434;2023-07-29T06:46:19;9.05;;;8.45;;
16662;SDS011;8445;51.270;9.434;2023-07-29T06:48:45;9.40;;;8.52;;
16662;SDS011;8445;51.270;9.434;2023-07-29T06:51:11;8.90;;;8.20;;
16662;SDS011;8445;51.270;9.434;2023-07-29T06:53:37;8.95;;;8.15;;
16662;SDS011;8445;51.270;9.434;2023-07-29T06:56:03;9.32;;;8.75;;
16662;SDS011;8445;51.270;9.434;2023-07-29T06:58:29;9.13;;;8.43;;
16662;SDS011;8445;51.270;9.434;2023-07-29T07:00:55;8.93;;;8.25;;
16662;SDS011;8445;51.270;9.434;2023-07-29T07:03:21;8.90;;;8.13;;
16662;SDS011;8445;51.270;9.434;2023-07-29T07:05:47;10.38;;;8.73;;
16662;SDS011;8445;51.270;9.434;2023-07-29T07:08:13;8.82;;;8.23;;
16662;SDS011;8445;51.270;9.434;2023-07-29T07:10:39;8.45;;;7.90;;
16662;SDS011;8445;51.270;9.434;2023-07-29T07:13:05;8.55;;;8.05;;
16662;SDS011;8445;51.270;9.434;2023-07-29T07:15:31;8.90;;;7.72;;
16662;SDS011;8445;51.270;9.434;2023-07-29T07:17:57;8.90;;;8.00;;
16662;SDS011;8445;51.270;9.434;2023-07-29T07:20:23;8.80;;;8.10;;
16662;SDS011;8445;51.270;9.434;2023-07-29T07:22:49;8.63;;;7.97;;
16662;SDS011;8445;51.270;9.434;2023-07-29T07:25:14;8.40;;;7.70;;
16662;SDS011;8445;51.270;9.434;2023-07-29T07:27:40;8.48;;;7.85;;
16662;SDS011;8445;51.270;9.434;2023-07-29T07:30:06;8.35;;;7.65;;
16662;SDS011;8445;51.270;9.434;2023-07-29T07:32:33;8.73;;;8.05;;
16662;SDS011;8445;51.270;9.434;2023-07-29T07:34:59;8.48;;;7.75;;
16662;SDS011;8445;51.270;9.434;2023-07-29T07:37:24;8.50;;;7.70;;
16662;SDS011;8445;51.270;9.434;2023-07-29T07:39:50;10.27;;;8.02;;
16662;SDS011;8445;51.270;9.434;2023-07-29T07:42:16;13.18;;;7.80;;
16662;SDS011;8445;51.270;9.434;2023-07-29T07:44:42;8.25;;;7.65;;
16662;SDS011;8445;51.270;9.434;2023-07-29T07:47:08;8.43;;;7.82;;
16662;SDS011;8445;51.270;9.434;2023-07-29T07:49:34;7.55;;;7.15;;
16662;SDS011;8445;51.270;9.434;2023-07-29T07:52:00;9.27;;;7.60;;
16662;SDS011;8445;51.270;9.434;2023-07-29T07:54:26;9.25;;;8.40;;
16662;SDS011;8445;51.270;9.434;2023-07-29T07:56:51;8.68;;;7.97;;
16662;SDS011;8445;51.270;9.434;2023-07-29T07:59:17;8.40;;;7.80;;
16662;SDS011;8445;51.270;9.434;2023-07-29T08:01:44;8.30;;;7.78;;
16662;SDS011;8445;51.270;9.434;2023-07-29T08:04:10;7.25;;;6.85;;
16662;SDS011;8445;51.270;9.434;2023-07-29T08:06:36;8.65;;;8.05;;
16662;SDS011;8445;51.270;9.434;2023-07-29T08:09:02;7.70;;;7.20;;
16662;SDS011;8445;51.270;9.434;2023-07-29T08:11:28;8.05;;;7.60;;
16662;SDS011;8445;51.270;9.434;2023-07-29T08:13:54;7.85;;;7.45;;
16662;SDS011;8445;51.270;9.434;2023-07-29T08:16:20;7.55;;;7.05;;
16662;SDS011;8445;51.270;9.434;2023-07-29T08:18:46;7.22;;;6.72;;
16662;SDS011;8445;51.270;9.434;2023-07-29T08:21:12;7.07;;;6.70;;
16662;SDS011;8445;51.270;9.434;2023-07-29T08:23:38;7.43;;;7.03;;
16662;SDS011;8445;51.270;9.434;2023-07-29T08:26:04;8.00;;;7.00;;
16662;SDS011;8445;51.270;9.434;2023-07-29T08:28:32;10.20;;;6.82;;
16662;SDS011;8445;51.270;9.434;2023-07-29T08:31:00;7.53;;;6.75;;
16662;SDS011;8445;51.270;9.434;2023-07-29T08:33:26;7.63;;;7.00;;
16662;SDS011;8445;51.270;9.434;2023-07-29T08:35:53;7.47;;;6.90;;
16662;SDS011;8445;51.270;9.434;2023-07-29T08:38:20;7.45;;;7.05;;
16662;SDS011;8445;51.270;9.434;2023-07-29T08:40:50;7.50;;;6.80;;
16662;SDS011;8445;51.270;9.434;2023-07-29T08:43:49;7.00;;;6.70;;
16662;SDS011;8445;51.270;9.434;2023-07-29T08:46:32;7.38;;;6.78;;
16662;SDS011;8445;51.270;9.434;2023-07-29T08:48:59;7.00;;;6.60;;
16662;SDS011;8445;51.270;9.434;2023-07-29T08:51:26;6.97;;;6.30;;
16662;SDS011;8445;51.270;9.434;2023-07-29T08:53:54;8.18;;;7.57;;
16662;SDS011;8445;51.270;9.434;2023-07-29T08:56:21;7.45;;;7.03;;
16662;SDS011;8445;51.270;9.434;2023-07-29T08:58:47;7.97;;;7.57;;
16662;SDS011;8445;51.270;9.434;2023-07-29T09:01:14;8.82;;;8.05;;
16662;SDS011;8445;51.270;9.434;2023-07-29T09:03:41;6.15;;;5.85;;
16662;SDS011;8445;51.270;9.434;2023-07-29T09:06:07;6.75;;;6.32;;
16662;SDS011;8445;51.270;9.434;2023-07-29T09:08:34;5.63;;;5.32;;
16662;SDS011;8445;51.270;9.434;2023-07-29T09:11:00;6.28;;;5.90;;
16662;SDS011;8445;51.270;9.434;2023-07-29T09:13:26;7.15;;;6.72;;
16662;SDS011;8445;51.270;9.434;2023-07-29T09:15:54;8.30;;;7.80;;
16662;SDS011;8445;51.270;9.434;2023-07-29T09:18:23;6.10;;;5.78;;
16662;SDS011;8445;51.270;9.434;2023-07-29T09:20:52;7.82;;;6.90;;
16662;SDS011;8445;51.270;9.434;2023-07-29T09:23:19;8.50;;;7.80;;
16662;SDS011;8445;51.270;9.434;2023-07-29T09:25:48;8.13;;;7.72;;
16662;SDS011;8445;51.270;9.434;2023-07-29T09:28:14;7.78;;;7.38;;
16662;SDS011;8445;51.270;9.434;2023-07-29T09:30:42;8.25;;;7.85;;
16662;SDS011;8445;51.270;9.434;2023-07-29T09:33:11;7.75;;;7.25;;
16662;SDS011;8445;51.270;9.434;2023-07-29T09:35:37;8.70;;;8.00;;
16662;SDS011;8445;51.270;9.434;2023-07-29T09:38:04;9.00;;;8.38;;
16662;SDS011;8445;51.270;9.434;2023-07-29T09:40:35;7.57;;;7.00;;
16662;SDS011;8445;51.270;9.434;2023-07-29T09:43:03;8.35;;;7.65;;
16662;SDS011;8445;51.270;9.434;2023-07-29T09:45:32;8.20;;;7.53;;
16662;SDS011;8445;51.270;9.434;2023-07-29T09:48:00;8.00;;;7.60;;
16662;SDS011;8445;51.270;9.434;2023-07-29T09:50:28;8.20;;;7.80;;
16662;SDS011;8445;51.270;9.434;2023-07-29T09:52:54;7.65;;;7.05;;
16662;SDS011;8445;51.270;9.434;2023-07-29T09:55:23;6.63;;;6.32;;
16662;SDS011;8445;51.270;9.434;2023-07-29T09:57:56;7.45;;;6.82;;
16662;SDS011;8445;51.270;9.434;2023-07-29T10:00:27;9.00;;;8.50;;
16662;SDS011;8445;51.270;9.434;2023-07-29T10:02:54;9.48;;;8.80;;
16662;SDS011;8445;51.270;9.434;2023-07-29T10:05:21;10.00;;;9.50;;
16662;SDS011;8445;51.270;9.434;2023-07-29T10:07:50;10.10;;;9.50;;
16662;SDS011;8445;51.270;9.434;2023-07-29T10:10:17;8.70;;;8.20;;
16662;SDS011;8445;51.270;9.434;2023-07-29T10:12:43;9.48;;;8.95;;
16662;SDS011;8445;51.270;9.434;2023-07-29T10:15:10;10.02;;;9.52;;
16662;SDS011;8445;51.270;9.434;2023-07-29T10:17:36;9.55;;;9.05;;
16662;SDS011;8445;51.270;9.434;2023-07-29T10:20:04;9.85;;;8.93;;
16662;SDS011;8445;51.270;9.434;2023-07-29T10:22:34;9.85;;;9.30;;
16662;SDS011;8445;51.270;9.434;2023-07-29T10:25:16;7.63;;;6.90;;
16662;SDS011;8445;51.270;9.434;2023-07-29T10:27:56;9.05;;;8.50;;
16662;SDS011;8445;51.270;9.434;2023-07-29T10:30:30;10.00;;;9.32;;
16662;SDS011;8445;51.270;9.434;2023-07-29T10:33:03;7.97;;;7.50;;
16662;SDS011;8445;51.270;9.434;2023-07-29T10:35:34;9.95;;;9.27;;
16662;SDS011;8445;51.270;9.434;2023-07-29T10:38:02;7.68;;;7.13;;
16662;SDS011;8445;51.270;9.434;2023-07-29T10:40:46;9.00;;;8.50;;
16662;SDS011;8445;51.270;9.434;2023-07-29T10:43:20;8.98;;;8.48;;
16662;SDS011;8445;51.270;9.434;2023-07-29T10:46:14;8.48;;;7.97;;
16662;SDS011;8445;51.270;9.434;2023-07-29T10:48:55;6.68;;;6.30;;
16662;SDS011;8445;51.270;9.434;2023-07-29T10:51:29;7.07;;;6.78;;
16662;SDS011;8445;51.270;9.434;2023-07-29T10:54:00;7.78;;;7.28;;
16662;SDS011;8445;51.270;9.434;2023-07-29T10:56:29;9.98;;;9.38;;
16662;SDS011;8445;51.270;9.434;2023-07-29T11:01:39;9.55;;;8.88;;
16662;SDS011;8445;51.270;9.434;2023-07-29T11:09:39;8.60;;;8.13;;
16662;SDS011;8445;51.270;9.434;2023-07-29T11:15:13;7.40;;;7.00;;
16662;SDS011;8445;51.270;9.434;2023-07-29T11:17:52;9.65;;;9.15;;
16662;SDS011;8445;51.270;9.434;2023-07-29T11:20:24;9.20;;;8.60;;
16662;SDS011;8445;51.270;9.434;2023-07-29T11:22:58;7.75;;;7.35;;
16662;SDS011;8445;51.270;9.434;2023-07-29T11:25:28;6.15;;;5.85;;
16662;SDS011;8445;51.270;9.434;2023-07-29T11:27:56;6.70;;;6.30;;
16662;SDS011;8445;51.270;9.434;2023-07-29T11:30:24;6.18;;;5.82;;
16662;SDS011;8445;51.270;9.434;2023-07-29T11:32:55;6.13;;;5.72;;
16662;SDS011;8445;51.270;9.434;2023-07-29T11:35:22;6.50;;;6.05;;
16662;SDS011;8445;51.270;9.434;2023-07-29T11:37:50;6.72;;;6.32;;
16662;SDS011;8445;51.270;9.434;2023-07-29T11:40:19;5.78;;;5.47;;
16662;SDS011;8445;51.270;9.434;2023-07-29T11:42:48;6.20;;;5.80;;
16662;SDS011;8445;51.270;9.434;2023-07-29T11:45:16;6.70;;;6.10;;
16662;SDS011;8445;51.270;9.434;2023-07-29T11:47:43;6.22;;;5.80;;
16662;SDS011;8445;51.270;9.434;2023-07-29T11:50:10;7.25;;;6.75;;
16662;SDS011;8445;51.270;9.434;2023-07-29T11:52:41;6.40;;;6.10;;
16662;SDS011;8445;51.270;9.434;2023-07-29T11:55:09;6.90;;;6.60;;
16662;SDS011;8445;51.270;9.434;2023-07-29T11:57:37;6.63;;;6.30;;
16662;SDS011;8445;51.270;9.434;2023-07-29T12:00:05;6.30;;;5.90;;
16662;SDS011;8445;51.270;9.434;2023-07-29T12:02:38;6.30;;;5.90;;
16662;SDS011;8445;51.270;9.434;2023-07-29T12:05:09;5.72;;;5.43;;
16662;SDS011;8445;51.270;9.434;2023-07-29T12:07:40;5.82;;;5.53;;
16662;SDS011;8445;51.270;9.434;2023-07-29T12:10:09;6.07;;;5.57;;
16662;SDS011;8445;51.270;9.434;2023-07-29T12:12:45;5.53;;;5.15;;
16662;SDS011;8445;51.270;9.434;2023-07-29T12:15:25;6.85;;;6.38;;
16662;SDS011;8445;51.270;9.434;2023-07-29T12:17:53;6.15;;;5.78;;
16662;SDS011;8445;51.270;9.434;2023-07-29T12:20:24;6.60;;;6.05;;
16662;SDS011;8445;51.270;9.434;2023-07-29T12:22:58;6.10;;;5.72;;
16662;SDS011;8445;51.270;9.434;2023-07-29T12:25:30;5.90;;;5.40;;
16662;SDS011;8445;51.270;9.434;2023-07-29T12:27:56;4.85;;;4.65;;
16662;SDS011;8445;51.270;9.434;2023-07-29T12:30:28;6.20;;;5.45;;
16662;SDS011;8445;51.270;9.434;2023-07-29T12:32:54;4.60;;;4.40;;
16662;SDS011;8445;51.270;9.434;2023-07-29T12:35:20;4.47;;;4.28;;
16662;SDS011;8445;51.270;9.434;2023-07-29T12:37:46;5.70;;;5.30;;
16662;SDS011;8445;51.270;9.434;2023-07-29T12:40:24;5.20;;;4.90;;
16662;SDS011;8445;51.270;9.434;2023-07-29T12:42:51;5.97;;;5.53;;
16662;SDS011;8445;51.270;9.434;2023-07-29T12:45:18;5.75;;;5.30;;
16662;SDS011;8445;51.270;9.434;2023-07-29T12:47:44;5.55;;;5.15;;
16662;SDS011;8445;51.270;9.434;2023-07-29T12:50:10;5.78;;;5.45;;
16662;SDS011;8445;51.270;9.434;2023-07-29T12:52:36;5.53;;;5.22;;
16662;SDS011;8445;51.270;9.434;2023-07-29T12:55:03;5.70;;;5.40;;
16662;SDS011;8445;51.270;9.434;2023-07-29T12:57:29;5.40;;;5.10;;
16662;SDS011;8445;51.270;9.434;2023-07-29T12:59:55;6.57;;;6.10;;
16662;SDS011;8445;51.270;9.434;2023-07-29T13:02:21;5.65;;;5.35;;
16662;SDS011;8445;51.270;9.434;2023-07-29T13:04:47;4.88;;;4.68;;
16662;SDS011;8445;51.270;9.434;2023-07-29T13:07:12;5.68;;;5.38;;
16662;SDS011;8445;51.270;9.434;2023-07-29T13:09:38;5.50;;;5.15;;
16662;SDS011;8445;51.270;9.434;2023-07-29T13:12:04;5.53;;;5.22;;
16662;SDS011;8445;51.270;9.434;2023-07-29T13:14:31;5.65;;;5.30;;
16662;SDS011;8445;51.270;9.434;2023-07-29T13:16:56;5.70;;;5.35;;
16662;SDS011;8445;51.270;9.434;2023-07-29T13:19:22;6.63;;;6.32;;
16662;SDS011;8445;51.270;9.434;2023-07-29T13:21:48;6.55;;;6.25;;
16662;SDS011;8445;51.270;9.434;2023-07-29T13:24:14;8.20;;;7.80;;
16662;SDS011;8445;51.270;9.434;2023-07-29T13:26:40;6.40;;;6.00;;
16662;SDS011;8445;51.270;9.434;2023-07-29T13:29:07;6.18;;;5.85;;
16662;SDS011;8445;51.270;9.434;2023-07-29T13:31:33;7.40;;;7.10;;
16662;SDS011;8445;51.270;9.434;2023-07-29T13:33:59;7.80;;;7.20;;
16662;SDS011;8445;51.270;9.434;2023-07-29T13:36:24;6.93;;;6.43;;
16662;SDS011;8445;51.270;9.434;2023-07-29T13:38:50;6.25;;;5.72;;
16662;SDS011;8445;51.270;9.434;2023-07-29T13:41:16;7.93;;;7.50;;
16662;SDS011;8445;51.270;9.434;2023-07-29T13:43:42;7.78;;;7.30;;
16662;SDS011;8445;51.270;9.434;2023-07-29T13:46:08;7.88;;;7.38;;
16662;SDS011;8445;51.270;9.434;2023-07-29T13:48:34;7.10;;;6.80;;
16662;SDS011;8445;51.270;9.434;2023-07-29T13:51:01;5.88;;;5.57;;
16662;SDS011;8445;51.270;9.434;2023-07-29T13:53:27;5.93;;;5.40;;
16662;SDS011;8445;51.270;9.434;2023-07-29T13:55:52;6.07;;;5.78;;
16662;SDS011;8445;51.270;9.434;2023-07-29T13:58:18;5.45;;;5.25;;
16662;SDS011;8445;51.270;9.434;2023-07-29T14:00:44;5.60;;;5.40;;
16662;SDS011;8445;51.270;9.434;2023-07-29T14:03:10;5.18;;;4.97;;
16662;SDS011;8445;51.270;9.434;2023-07-29T14:05:36;5.25;;;5.05;;
16662;SDS011;8445;51.270;9.434;2023-07-29T14:08:02;5.55;;;5.25;;
16662;SDS011;8445;51.270;9.434;2023-07-29T14:10:28;5.20;;;4.90;;
16662;SDS011;8445;51.270;9.434;2023-07-29T14:12:56;4.78;;;4.57;;
16662;SDS011;8445;51.270;9.434;2023-07-29T14:15:22;5.70;;;5.30;;
16662;SDS011;8445;51.270;9.434;2023-07-29T14:17:50;5.10;;;4.90;;
16662;SDS011;8445;51.270;9.434;2023-07-29T14:20:16;6.03;;;5.72;;
16662;SDS011;8445;51.270;9.434;2023-07-29T14:22:43;6.28;;;5.97;;
16662;SDS011;8445;51.270;9.434;2023-07-29T14:25:09;5.32;;;5.03;;
16662;SDS011;8445;51.270;9.434;2023-07-29T14:27:35;6.85;;;6.35;;
16662;SDS011;8445;51.270;9.434;2023-07-29T14:30:00;5.47;;;5.20;;
16662;SDS011;8445;51.270;9.434;2023-07-29T14:32:27;5.45;;;4.95;;
16662;SDS011;8445;51.270;9.434;2023-07-29T14:34:53;5.28;;;4.97;;
16662;SDS011;8445;51.270;9.434;2023-07-29T14:37:19;5.28;;;4.97;;
16662;SDS011;8445;51.270;9.434;2023-07-29T14:39:45;5.32;;;5.13;;
16662;SDS011;8445;51.270;9.434;2023-07-29T14:42:11;6.03;;;5.72;;
16662;SDS011;8445;51.270;9.434;2023-07-29T14:44:36;6.53;;;6.18;;
16662;SDS011;8445;51.270;9.434;2023-07-29T14:47:02;5.93;;;5.63;;
16662;SDS011;8445;51.270;9.434;2023-07-29T14:49:28;5.50;;;5.30;;
16662;SDS011;8445;51.270;9.434;2023-07-29T14:51:54;6.05;;;5.75;;
16662;SDS011;8445;51.270;9.434;2023-07-29T14:54:20;6.25;;;5.85;;
16662;SDS011;8445;51.270;9.434;2023-07-29T14:56:46;7.18;;;6.88;;
16662;SDS011;8445;51.270;9.434;2023-07-29T14:59:12;7.38;;;7.07;;
16662;SDS011;8445;51.270;9.434;2023-07-29T15:01:38;6.93;;;6.53;;
16662;SDS011;8445;51.270;9.434;2023-07-29T15:04:04;6.10;;;5.80;;
16662;SDS011;8445;51.270;9.434;2023-07-29T15:06:30;5.75;;;5.45;;
16662;SDS011;8445;51.270;9.434;2023-07-29T15:08:55;6.13;;;5.72;;